sensor_id;sensor_type;location;lat;lon;timestamp;P1;durP1;ratioP1;P2;durP2;ratioP2
82012;SDS011;71535;53.354;15.030;2023-09-12T00:01:03;16.80;;;11.05;;
82012;SDS011;71535;53.354;15.030;2023-09-12T00:03:32;18.05;;;12.05;;
82012;SDS011;71535;53.354;15.030;2023-09-12T00:06:00;17.55;;;11.13;;
82012;SDS011;71535;53.354;15.030;2023-09-12T00:08:26;19.52;;;11.57;;
82012;SDS011;71535;53.354;15.030;2023-09-12T00:11:02;19.80;;;12.13;;
82012;SDS011;71535;53.354;15.030;2023-09-12T00:13:29;18.95;;;11.60;;
82012;SDS011;71535;53.354;15.030;2023-09-12T00:15:56;19.05;;;11.88;;
82012;SDS011;71535;53.354;15.030;2023-09-12T00:18:22;18.08;;;12.10;;
82012;SDS011;71535;53.354;15.030;2023-09-12T00:20:50;19.77;;;11.88;;
82012;SDS011;71535;53.354;15.030;2023-09-12T00:23:17;18.98;;;12.02;;
82012;SDS011;71535;53.354;15.030;2023-09-12T00:25:44;18.88;;;11.70;;
82012;SDS011;71535;53.354;15.030;2023-09-12T00:28:10;18.13;;;11.73;;
82012;SDS011;71535;53.354;15.030;2023-09-12T00:30:37;18.35;;;11.55;;
82012;SDS011;71535;53.354;15.030;2023-09-12T00:33:03;17.52;;;11.77;;
82012;SDS011;71535;53.354;15.030;2023-09-12T00:35:30;18.00;;;11.48;;
82012;SDS011;71535;53.354;15.030;2023-09-12T00:37:57;20.05;;;12.27;;
82012;SDS011;71535;53.354;15.030;2023-09-12T00:40:24;18.20;;;11.50;;
82012;SDS011;71535;53.354;15.030;2023-09-12T00:42:50;18.23;;;11.63;;
82012;SDS011;71535;53.354;15.030;2023-09-12T00:45:17;18.38;;;11.35;;
82012;SDS011;71535;53.354;15.030;2023-09-12T00:47:43;18.50;;;10.82;;
82012;SDS011;71535;53.354;15.030;2023-09-12T00:50:10;23.73;;;12.75;;
82012;SDS011;71535;53.354;15.030;2023-09-12T00:52:37;17.27;;;11.68;;
82012;SDS011;71535;53.354;15.030;2023-09-12T00:55:06;19.33;;;11.93;;
82012;SDS011;71535;53.354;15.030;2023-09-12T00:57:33;18.90;;;10.82;;
82012;SDS011;71535;53.354;15.030;2023-09-12T01:00:01;17.88;;;11.23;;
82012;SDS011;71535;53.354;15.030;2023-09-12T01:02:35;17.00;;;10.27;;
82012;SDS011;71535;53.354;15.030;2023-09-12T01:05:03;17.92;;;10.07;;
82012;SDS011;71535;53.354;15.030;2023-09-12T01:07:29;18.10;;;11.02;;
82012;SDS011;71535;53.354;15.030;2023-09-12T01:09:56;17.45;;;10.45;;
82012;SDS011;71535;53.354;15.030;2023-09-12T01:12:24;16.65;;;10.48;;
82012;SDS011;71535;53.354;15.030;2023-09-12T01:14:51;20.75;;;11.57;;
82012;SDS011;71535;53.354;15.030;2023-09-12T01:17:17;17.48;;;11.27;;
82012;SDS011;71535;53.354;15.030;2023-09-12T01:19:44;18.13;;;11.48;;
82012;SDS011;71535;53.354;15.030;2023-09-12T01:22:30;17.20;;;11.15;;
82012;SDS011;71535;53.354;15.030;2023-09-12T01:25:07;19.60;;;12.02;;
82012;SDS011;71535;53.354;15.030;2023-09-12T01:27:36;20.05;;;12.75;;
82012;SDS011;71535;53.354;15.030;2023-09-12T01:30:04;16.98;;;11.18;;
82012;SDS011;71535;53.354;15.030;2023-09-12T01:32:31;19.40;;;11.45;;
82012;SDS011;71535;53.354;15.030;2023-09-12T01:34:58;21.80;;;11.43;;
82012;SDS011;71535;53.354;15.030;2023-09-12T01:37:24;18.80;;;11.77;;
82012;SDS011;71535;53.354;15.030;2023-09-12T01:39:51;17.67;;;10.85;;
82012;SDS011;71535;53.354;15.030;2023-09-12T01:42:18;19.95;;;12.15;;
82012;SDS011;71535;53.354;15.030;2023-09-12T01:44:49;19.00;;;11.60;;
82012;SDS011;71535;53.354;15.030;2023-09-12T01:47:16;17.60;;;11.55;;
82012;SDS011;71535;53.354;15.030;2023-09-12T01:49:45;18.08;;;11.10;;
82012;SDS011;71535;53.354;15.030;2023-09-12T01:52:13;20.77;;;11.30;;
82012;SDS011;71535;53.354;15.030;2023-09-12T01:54:40;20.50;;;12.80;;
82012;SDS011;71535;53.354;15.030;2023-09-12T01:57:06;18.70;;;11.35;;
82012;SDS011;71535;53.354;15.030;2023-09-12T01:59:33;17.98;;;11.50;;
82012;SDS011;71535;53.354;15.030;2023-09-12T02:02:01;17.20;;;10.73;;
82012;SDS011;71535;53.354;15.030;2023-09-12T02:04:28;20.38;;;11.00;;
82012;SDS011;71535;53.354;15.030;2023-09-12T02:06:54;20.33;;;10.88;;
82012;SDS011;71535;53.354;15.030;2023-09-12T02:09:21;16.60;;;10.82;;
82012;SDS011;71535;53.354;15.030;2023-09-12T02:11:48;17.60;;;10.38;;
82012;SDS011;71535;53.354;15.030;2023-09-12T02:14:15;17.05;;;10.93;;
82012;SDS011;71535;53.354;15.030;2023-09-12T02:16:43;22.30;;;10.98;;
82012;SDS011;71535;53.354;15.030;2023-09-12T02:19:11;16.58;;;10.48;;
82012;SDS011;71535;53.354;15.030;2023-09-12T02:21:37;15.48;;;9.93;;
82012;SDS011;71535;53.354;15.030;2023-09-12T02:24:04;17.58;;;10.52;;
82012;SDS011;71535;53.354;15.030;2023-09-12T02:26:30;17.15;;;11.07;;
82012;SDS011;71535;53.354;15.030;2023-09-12T02:29:01;18.83;;;11.80;;
82012;SDS011;71535;53.354;15.030;2023-09-12T02:31:27;18.83;;;10.60;;
82012;SDS011;71535;53.354;15.030;2023-09-12T02:33:54;19.70;;;12.00;;
82012;SDS011;71535;53.354;15.030;2023-09-12T02:36:22;17.52;;;11.57;;
82012;SDS011;71535;53.354;15.030;2023-09-12T02:38:48;17.10;;;10.88;;
82012;SDS011;71535;53.354;15.030;2023-09-12T02:41:15;19.20;;;11.75;;
82012;SDS011;71535;53.354;15.030;2023-09-12T02:43:41;17.73;;;11.27;;
82012;SDS011;71535;53.354;15.030;2023-09-12T02:46:08;21.85;;;12.73;;
82012;SDS011;71535;53.354;15.030;2023-09-12T02:48:34;20.45;;;12.68;;
82012;SDS011;71535;53.354;15.030;2023-09-12T02:51:01;18.42;;;12.50;;
82012;SDS011;71535;53.354;15.030;2023-09-12T02:53:29;17.15;;;11.07;;
82012;SDS011;71535;53.354;15.030;2023-09-12T02:55:55;18.60;;;11.57;;
82012;SDS011;71535;53.354;15.030;2023-09-12T02:58:22;17.77;;;12.43;;
82012;SDS011;71535;53.354;15.030;2023-09-12T03:00:48;19.60;;;12.15;;
82012;SDS011;71535;53.354;15.030;2023-09-12T03:03:19;21.40;;;11.38;;
82012;SDS011;71535;53.354;15.030;2023-09-12T03:05:46;20.48;;;11.88;;
82012;SDS011;71535;53.354;15.030;2023-09-12T03:08:12;18.75;;;11.20;;
82012;SDS011;71535;53.354;15.030;2023-09-12T03:10:40;18.33;;;11.88;;
82012;SDS011;71535;53.354;15.030;2023-09-12T03:13:07;18.10;;;12.05;;
82012;SDS011;71535;53.354;15.030;2023-09-12T03:15:35;18.85;;;11.68;;
82012;SDS011;71535;53.354;15.030;2023-09-12T03:18:02;18.40;;;10.73;;
82012;SDS011;71535;53.354;15.030;2023-09-12T03:20:29;19.75;;;11.63;;
82012;SDS011;71535;53.354;15.030;2023-09-12T03:22:55;18.80;;;11.95;;
82012;SDS011;71535;53.354;15.030;2023-09-12T03:25:22;18.52;;;11.75;;
82012;SDS011;71535;53.354;15.030;2023-09-12T03:27:49;20.08;;;11.35;;
82012;SDS011;71535;53.354;15.030;2023-09-12T03:30:16;17.73;;;11.60;;
82012;SDS011;71535;53.354;15.030;2023-09-12T03:32:43;17.02;;;10.50;;
82012;SDS011;71535;53.354;15.030;2023-09-12T03:35:09;17.30;;;9.98;;
82012;SDS011;71535;53.354;15.030;2023-09-12T03:37:36;15.63;;;9.88;;
82012;SDS011;71535;53.354;15.030;2023-09-12T03:40:05;18.00;;;10.63;;
82012;SDS011;71535;53.354;15.030;2023-09-12T03:42:32;17.48;;;10.35;;
82012;SDS011;71535;53.354;15.030;2023-09-12T03:45:00;18.63;;;10.50;;
82012;SDS011;71535;53.354;15.030;2023-09-12T03:47:27;17.27;;;11.07;;
82012;SDS011;71535;53.354;15.030;2023-09-12T03:49:53;17.65;;;10.40;;
82012;SDS011;71535;53.354;15.030;2023-09-12T03:52:20;17.58;;;11.32;;
82012;SDS011;71535;53.354;15.030;2023-09-12T03:54:46;18.48;;;11.25;;
82012;SDS011;71535;53.354;15.030;2023-09-12T03:57:13;19.70;;;10.60;;
82012;SDS011;71535;53.354;15.030;2023-09-12T03:59:39;18.60;;;10.65;;
82012;SDS011;71535;53.354;15.030;2023-09-12T04:02:08;18.10;;;10.85;;
82012;SDS011;71535;53.354;15.030;2023-09-12T04:04:34;20.05;;;12.00;;
82012;SDS011;71535;53.354;15.030;2023-09-12T04:07:01;18.88;;;11.25;;
82012;SDS011;71535;53.354;15.030;2023-09-12T04:09:27;20.23;;;11.63;;
82012;SDS011;71535;53.354;15.030;2023-09-12T04:11:54;17.73;;;12.05;;
82012;SDS011;71535;53.354;15.030;2023-09-12T04:14:20;19.13;;;11.82;;
82012;SDS011;71535;53.354;15.030;2023-09-12T04:16:47;22.15;;;11.65;;
82012;SDS011;71535;53.354;15.030;2023-09-12T04:19:15;18.30;;;12.07;;
82012;SDS011;71535;53.354;15.030;2023-09-12T04:21:41;17.67;;;11.32;;
82012;SDS011;71535;53.354;15.030;2023-09-12T04:24:08;17.40;;;11.02;;
82012;SDS011;71535;53.354;15.030;2023-09-12T04:26:36;20.42;;;11.48;;
82012;SDS011;71535;53.354;15.030;2023-09-12T04:29:02;19.10;;;11.23;;
82012;SDS011;71535;53.354;15.030;2023-09-12T04:31:29;17.20;;;10.80;;
82012;SDS011;71535;53.354;15.030;2023-09-12T04:33:55;17.75;;;11.20;;
82012;SDS011;71535;53.354;15.030;2023-09-12T04:36:23;18.80;;;11.00;;
82012;SDS011;71535;53.354;15.030;2023-09-12T04:38:50;20.17;;;11.63;;
82012;SDS011;71535;53.354;15.030;2023-09-12T04:41:16;18.05;;;11.63;;
82012;SDS011;71535;53.354;15.030;2023-09-12T04:43:43;17.33;;;10.15;;
82012;SDS011;71535;53.354;15.030;2023-09-12T04:46:10;18.83;;;10.55;;
82012;SDS011;71535;53.354;15.030;2023-09-12T04:48:36;18.13;;;10.65;;
82012;SDS011;71535;53.354;15.030;2023-09-12T04:51:03;18.85;;;11.38;;
82012;SDS011;71535;53.354;15.030;2023-09-12T04:53:31;18.95;;;11.80;;
82012;SDS011;71535;53.354;15.030;2023-09-12T04:55:59;19.25;;;11.00;;
82012;SDS011;71535;53.354;15.030;2023-09-12T04:58:26;18.50;;;11.40;;
82012;SDS011;71535;53.354;15.030;2023-09-12T05:00:53;20.90;;;11.00;;
82012;SDS011;71535;53.354;15.030;2023-09-12T05:03:20;23.90;;;11.25;;
82012;SDS011;71535;53.354;15.030;2023-09-12T05:05:46;26.40;;;11.65;;
82012;SDS011;71535;53.354;15.030;2023-09-12T05:08:13;25.52;;;11.57;;
82012;SDS011;71535;53.354;15.030;2023-09-12T05:10:41;25.42;;;11.35;;
82012;SDS011;71535;53.354;15.030;2023-09-12T05:13:09;22.40;;;11.27;;
82012;SDS011;71535;53.354;15.030;2023-09-12T05:15:36;25.38;;;10.77;;
82012;SDS011;71535;53.354;15.030;2023-09-12T05:18:04;18.60;;;11.50;;
82012;SDS011;71535;53.354;15.030;2023-09-12T05:20:31;22.55;;;11.07;;
82012;SDS011;71535;53.354;15.030;2023-09-12T05:22:58;19.58;;;10.45;;
82012;SDS011;71535;53.354;15.030;2023-09-12T05:25:24;21.13;;;11.93;;
82012;SDS011;71535;53.354;15.030;2023-09-12T05:27:54;17.65;;;11.38;;
82012;SDS011;71535;53.354;15.030;2023-09-12T05:30:20;19.92;;;10.60;;
82012;SDS011;71535;53.354;15.030;2023-09-12T05:32:47;19.67;;;11.20;;
82012;SDS011;71535;53.354;15.030;2023-09-12T05:35:13;18.65;;;11.50;;
82012;SDS011;71535;53.354;15.030;2023-09-12T05:37:40;19.80;;;12.07;;
82012;SDS011;71535;53.354;15.030;2023-09-12T05:40:07;23.92;;;12.65;;
82012;SDS011;71535;53.354;15.030;2023-09-12T05:42:35;19.67;;;12.02;;
82012;SDS011;71535;53.354;15.030;2023-09-12T05:45:03;19.25;;;11.80;;
82012;SDS011;71535;53.354;15.030;2023-09-12T05:47:30;19.60;;;12.27;;
82012;SDS011;71535;53.354;15.030;2023-09-12T05:49:56;19.60;;;11.63;;
82012;SDS011;71535;53.354;15.030;2023-09-12T05:52:24;20.00;;;13.25;;
82012;SDS011;71535;53.354;15.030;2023-09-12T05:54:51;20.30;;;12.32;;
82012;SDS011;71535;53.354;15.030;2023-09-12T05:57:17;23.80;;;14.88;;
82012;SDS011;71535;53.354;15.030;2023-09-12T05:59:44;24.13;;;14.32;;
82012;SDS011;71535;53.354;15.030;2023-09-12T06:02:11;26.00;;;12.88;;
82012;SDS011;71535;53.354;15.030;2023-09-12T06:04:38;22.08;;;13.10;;
82012;SDS011;71535;53.354;15.030;2023-09-12T06:07:05;22.73;;;13.15;;
82012;SDS011;71535;53.354;15.030;2023-09-12T06:09:31;26.77;;;13.95;;
82012;SDS011;71535;53.354;15.030;2023-09-12T06:11:58;22.70;;;13.52;;
82012;SDS011;71535;53.354;15.030;2023-09-12T06:14:24;24.90;;;14.25;;
82012;SDS011;71535;53.354;15.030;2023-09-12T06:16:51;22.95;;;12.93;;
82012;SDS011;71535;53.354;15.030;2023-09-12T06:19:19;25.33;;;14.75;;
82012;SDS011;71535;53.354;15.030;2023-09-12T06:21:45;21.75;;;13.68;;
82012;SDS011;71535;53.354;15.030;2023-09-12T06:24:12;23.08;;;14.80;;
82012;SDS011;71535;53.354;15.030;2023-09-12T06:26:39;21.85;;;13.15;;
82012;SDS011;71535;53.354;15.030;2023-09-12T06:29:06;23.75;;;14.43;;
82012;SDS011;71535;53.354;15.030;2023-09-12T06:31:33;22.73;;;13.32;;
82012;SDS011;71535;53.354;15.030;2023-09-12T06:34:00;22.27;;;13.02;;
82012;SDS011;71535;53.354;15.030;2023-09-12T06:36:28;23.52;;;13.02;;
82012;SDS011;71535;53.354;15.030;2023-09-12T06:38:55;22.77;;;14.07;;
82012;SDS011;71535;53.354;15.030;2023-09-12T06:41:21;23.70;;;12.80;;
82012;SDS011;71535;53.354;15.030;2023-09-12T06:43:48;19.92;;;13.18;;
82012;SDS011;71535;53.354;15.030;2023-09-12T06:46:15;24.38;;;13.48;;
82012;SDS011;71535;53.354;15.030;2023-09-12T06:48:42;22.63;;;12.63;;
82012;SDS011;71535;53.354;15.030;2023-09-12T06:51:09;22.25;;;12.73;;
82012;SDS011;71535;53.354;15.030;2023-09-12T06:53:37;25.27;;;13.43;;
82012;SDS011;71535;53.354;15.030;2023-09-12T06:56:03;21.10;;;12.45;;
82012;SDS011;71535;53.354;15.030;2023-09-12T06:58:30;20.90;;;12.10;;
82012;SDS011;71535;53.354;15.030;2023-09-12T07:01:00;19.73;;;11.52;;
82012;SDS011;71535;53.354;15.030;2023-09-12T07:05:54;18.90;;;11.75;;
82012;SDS011;71535;53.354;15.030;2023-09-12T07:08:20;23.52;;;10.93;;
82012;SDS011;71535;53.354;15.030;2023-09-12T07:10:48;19.73;;;11.32;;
82012;SDS011;71535;53.354;15.030;2023-09-12T07:13:15;20.40;;;12.02;;
82012;SDS011;71535;53.354;15.030;2023-09-12T07:15:41;18.77;;;11.73;;
82012;SDS011;71535;53.354;15.030;2023-09-12T07:18:08;17.52;;;11.00;;
82012;SDS011;71535;53.354;15.030;2023-09-12T07:20:34;17.35;;;10.27;;
82012;SDS011;71535;53.354;15.030;2023-09-12T07:23:01;20.02;;;10.10;;
82012;SDS011;71535;53.354;15.030;2023-09-12T07:25:27;14.20;;;8.93;;
82012;SDS011;71535;53.354;15.030;2023-09-12T07:27:55;13.80;;;9.40;;
82012;SDS011;71535;53.354;15.030;2023-09-12T07:30:22;17.50;;;9.90;;
82012;SDS011;71535;53.354;15.030;2023-09-12T07:32:48;17.75;;;9.68;;
82012;SDS011;71535;53.354;15.030;2023-09-12T07:35:17;17.00;;;11.13;;
82012;SDS011;71535;53.354;15.030;2023-09-12T07:37:44;18.92;;;11.25;;
82012;SDS011;71535;53.354;15.030;2023-09-12T07:40:11;19.25;;;10.75;;
82012;SDS011;71535;53.354;15.030;2023-09-12T07:42:37;19.35;;;10.68;;
82012;SDS011;71535;53.354;15.030;2023-09-12T07:45:06;17.02;;;11.63;;
82012;SDS011;71535;53.354;15.030;2023-09-12T07:47:32;21.92;;;11.25;;
82012;SDS011;71535;53.354;15.030;2023-09-12T07:49:59;19.85;;;11.95;;
82012;SDS011;71535;53.354;15.030;2023-09-12T07:52:26;17.20;;;10.95;;
82012;SDS011;71535;53.354;15.030;2023-09-12T07:54:53;17.88;;;10.75;;
82012;SDS011;71535;53.354;15.030;2023-09-12T07:57:25;17.58;;;10.65;;
82012;SDS011;71535;53.354;15.030;2023-09-12T07:59:51;16.90;;;10.88;;
82012;SDS011;71535;53.354;15.030;2023-09-12T08:02:19;15.90;;;10.35;;
82012;SDS011;71535;53.354;15.030;2023-09-12T08:04:45;16.10;;;10.13;;
82012;SDS011;71535;53.354;15.030;2023-09-12T08:07:12;15.73;;;10.30;;
82012;SDS011;71535;53.354;15.030;2023-09-12T08:09:48;18.77;;;11.07;;
82012;SDS011;71535;53.354;15.030;2023-09-12T08:12:15;17.30;;;10.30;;
82012;SDS011;71535;53.354;15.030;2023-09-12T08:14:41;17.08;;;9.93;;
82012;SDS011;71535;53.354;15.030;2023-09-12T08:17:08;16.10;;;10.23;;
82012;SDS011;71535;53.354;15.030;2023-09-12T08:19:36;18.27;;;11.25;;
82012;SDS011;71535;53.354;15.030;2023-09-12T08:22:03;16.90;;;9.90;;
82012;SDS011;71535;53.354;15.030;2023-09-12T08:24:29;16.83;;;10.18;;
82012;SDS011;71535;53.354;15.030;2023-09-12T08:26:56;17.90;;;10.10;;
82012;SDS011;71535;53.354;15.030;2023-09-12T08:29:22;13.82;;;8.85;;
82012;SDS011;71535;53.354;15.030;2023-09-12T08:31:49;20.35;;;10.80;;
82012;SDS011;71535;53.354;15.030;2023-09-12T08:34:16;18.08;;;10.88;;
82012;SDS011;71535;53.354;15.030;2023-09-12T08:36:44;17.38;;;10.93;;
82012;SDS011;71535;53.354;15.030;2023-09-12T08:39:11;16.85;;;10.32;;
82012;SDS011;71535;53.354;15.030;2023-09-12T08:41:38;18.42;;;10.15;;
82012;SDS011;71535;53.354;15.030;2023-09-12T08:44:04;17.75;;;9.63;;
82012;SDS011;71535;53.354;15.030;2023-09-12T08:46:31;18.60;;;11.18;;
82012;SDS011;71535;53.354;15.030;2023-09-12T08:48:58;17.05;;;9.52;;
82012;SDS011;71535;53.354;15.030;2023-09-12T08:51:25;17.77;;;9.68;;
82012;SDS011;71535;53.354;15.030;2023-09-12T08:53:53;21.90;;;10.80;;
82012;SDS011;71535;53.354;15.030;2023-09-12T08:56:19;15.63;;;9.20;;
82012;SDS011;71535;53.354;15.030;2023-09-12T08:58:46;18.45;;;10.02;;
82012;SDS011;71535;53.354;15.030;2023-09-12T09:01:13;16.67;;;10.38;;
82012;SDS011;71535;53.354;15.030;2023-09-12T09:03:39;17.30;;;10.50;;
82012;SDS011;71535;53.354;15.030;2023-09-12T09:06:07;15.35;;;9.55;;
82012;SDS011;71535;53.354;15.030;2023-09-12T09:08:34;20.92;;;10.80;;
82012;SDS011;71535;53.354;15.030;2023-09-12T09:11:02;19.08;;;11.13;;
82012;SDS011;71535;53.354;15.030;2023-09-12T09:13:31;18.83;;;11.93;;
82012;SDS011;71535;53.354;15.030;2023-09-12T09:18:54;15.40;;;10.35;;
82012;SDS011;71535;53.354;15.030;2023-09-12T09:21:21;12.20;;;8.43;;
82012;SDS011;71535;53.354;15.030;2023-09-12T09:23:50;13.57;;;7.68;;
82012;SDS011;71535;53.354;15.030;2023-09-12T09:26:18;15.35;;;8.60;;
82012;SDS011;71535;53.354;15.030;2023-09-12T09:28:45;12.57;;;8.38;;
82012;SDS011;71535;53.354;15.030;2023-09-12T09:31:11;11.32;;;6.75;;
82012;SDS011;71535;53.354;15.030;2023-09-12T09:33:39;12.38;;;7.90;;
82012;SDS011;71535;53.354;15.030;2023-09-12T09:36:06;16.48;;;8.18;;
82012;SDS011;71535;53.354;15.030;2023-09-12T09:38:33;12.57;;;6.85;;
82012;SDS011;71535;53.354;15.030;2023-09-12T09:41:00;10.20;;;7.30;;
82012;SDS011;71535;53.354;15.030;2023-09-12T09:43:28;12.48;;;7.35;;
82012;SDS011;71535;53.354;15.030;2023-09-12T09:45:57;13.50;;;7.53;;
82012;SDS011;71535;53.354;15.030;2023-09-12T09:48:24;10.15;;;7.05;;
82012;SDS011;71535;53.354;15.030;2023-09-12T09:50:52;12.60;;;6.97;;
82012;SDS011;71535;53.354;15.030;2023-09-12T09:53:21;11.40;;;7.60;;
82012;SDS011;71535;53.354;15.030;2023-09-12T09:55:47;10.10;;;7.07;;
82012;SDS011;71535;53.354;15.030;2023-09-12T09:58:14;9.23;;;6.10;;
82012;SDS011;71535;53.354;15.030;2023-09-12T10:00:44;8.50;;;5.00;;
82012;SDS011;71535;53.354;15.030;2023-09-12T10:03:13;9.27;;;5.97;;
82012;SDS011;71535;53.354;15.030;2023-09-12T10:05:41;8.75;;;5.50;;
82012;SDS011;71535;53.354;15.030;2023-09-12T10:08:08;8.30;;;5.55;;
82012;SDS011;71535;53.354;15.030;2023-09-12T10:10:36;8.93;;;5.60;;
82012;SDS011;71535;53.354;15.030;2023-09-12T10:13:04;10.65;;;5.40;;
82012;SDS011;71535;53.354;15.030;2023-09-12T10:15:32;13.10;;;5.68;;
82012;SDS011;71535;53.354;15.030;2023-09-12T10:18:02;10.50;;;5.43;;
82012;SDS011;71535;53.354;15.030;2023-09-12T10:20:33;10.57;;;5.93;;
82012;SDS011;71535;53.354;15.030;2023-09-12T10:23:03;8.25;;;5.05;;
82012;SDS011;71535;53.354;15.030;2023-09-12T10:25:34;15.07;;;5.80;;
82012;SDS011;71535;53.354;15.030;2023-09-12T10:28:01;11.05;;;5.35;;
82012;SDS011;71535;53.354;15.030;2023-09-12T10:30:29;11.48;;;5.43;;
82012;SDS011;71535;53.354;15.030;2023-09-12T10:32:55;8.65;;;5.43;;
82012;SDS011;71535;53.354;15.030;2023-09-12T10:35:24;7.90;;;4.90;;
82012;SDS011;71535;53.354;15.030;2023-09-12T10:37:51;7.72;;;4.88;;
82012;SDS011;71535;53.354;15.030;2023-09-12T10:40:19;8.65;;;4.35;;
82012;SDS011;71535;53.354;15.030;2023-09-12T10:42:45;10.25;;;5.50;;
82012;SDS011;71535;53.354;15.030;2023-09-12T10:45:13;20.23;;;5.10;;
82012;SDS011;71535;53.354;15.030;2023-09-12T10:47:39;11.90;;;5.47;;
82012;SDS011;71535;53.354;15.030;2023-09-12T10:50:06;9.07;;;5.15;;
82012;SDS011;71535;53.354;15.030;2023-09-12T10:52:34;11.43;;;5.95;;
82012;SDS011;71535;53.354;15.030;2023-09-12T10:55:05;8.60;;;4.95;;
82012;SDS011;71535;53.354;15.030;2023-09-12T10:57:31;9.35;;;5.72;;
82012;SDS011;71535;53.354;15.030;2023-09-12T11:00:09;9.18;;;6.60;;
82012;SDS011;71535;53.354;15.030;2023-09-12T11:02:36;9.05;;;6.30;;
82012;SDS011;71535;53.354;15.030;2023-09-12T11:05:03;11.65;;;6.28;;
82012;SDS011;71535;53.354;15.030;2023-09-12T11:07:44;11.07;;;5.85;;
82012;SDS011;71535;53.354;15.030;2023-09-12T11:10:17;9.23;;;6.38;;
82012;SDS011;71535;53.354;15.030;2023-09-12T11:12:45;9.95;;;6.05;;
82012;SDS011;71535;53.354;15.030;2023-09-12T11:15:12;10.80;;;6.15;;
82012;SDS011;71535;53.354;15.030;2023-09-12T11:17:40;10.55;;;6.20;;
82012;SDS011;71535;53.354;15.030;2023-09-12T11:20:07;12.07;;;6.53;;
82012;SDS011;71535;53.354;15.030;2023-09-12T11:22:37;11.75;;;5.43;;
82012;SDS011;71535;53.354;15.030;2023-09-12T11:25:04;12.05;;;5.43;;
82012;SDS011;71535;53.354;15.030;2023-09-12T11:27:31;13.20;;;6.38;;
82012;SDS011;71535;53.354;15.030;2023-09-12T11:30:03;10.38;;;6.47;;
82012;SDS011;71535;53.354;15.030;2023-09-12T11:32:30;11.85;;;5.50;;
82012;SDS011;71535;53.354;15.030;2023-09-12T11:34:57;13.82;;;6.10;;
82012;SDS011;71535;53.354;15.030;2023-09-12T11:37:25;14.10;;;6.65;;
82012;SDS011;71535;53.354;15.030;2023-09-12T11:39:53;14.13;;;6.78;;
82012;SDS011;71535;53.354;15.030;2023-09-12T11:42:22;16.70;;;6.60;;
82012;SDS011;71535;53.354;15.030;2023-09-12T11:44:50;16.40;;;5.60;;
82012;SDS011;71535;53.354;15.030;2023-09-12T11:47:17;13.77;;;5.05;;
82012;SDS011;71535;53.354;15.030;2023-09-12T11:49:44;13.05;;;6.40;;
82012;SDS011;71535;53.354;15.030;2023-09-12T11:52:11;9.95;;;6.63;;
82012;SDS011;71535;53.354;15.030;2023-09-12T11:54:38;13.60;;;6.53;;
82012;SDS011;71535;53.354;15.030;2023-09-12T11:57:07;13.40;;;6.65;;
82012;SDS011;71535;53.354;15.030;2023-09-12T11:59:36;13.68;;;7.60;;
82012;SDS011;71535;53.354;15.030;2023-09-12T12:02:05;10.35;;;6.47;;
82012;SDS011;71535;53.354;15.030;2023-09-12T12:04:32;9.63;;;5.95;;
82012;SDS011;71535;53.354;15.030;2023-09-12T12:06:59;11.52;;;6.97;;
82012;SDS011;71535;53.354;15.030;2023-09-12T12:09:26;11.50;;;5.90;;
82012;SDS011;71535;53.354;15.030;2023-09-12T12:11:53;10.77;;;7.53;;
82012;SDS011;71535;53.354;15.030;2023-09-12T12:14:22;12.35;;;6.82;;
82012;SDS011;71535;53.354;15.030;2023-09-12T12:16:48;10.90;;;6.88;;
82012;SDS011;71535;53.354;15.030;2023-09-12T12:19:15;12.63;;;11.05;;
82012;SDS011;71535;53.354;15.030;2023-09-12T12:21:42;16.20;;;8.13;;
82012;SDS011;71535;53.354;15.030;2023-09-12T12:24:10;10.65;;;6.65;;
82012;SDS011;71535;53.354;15.030;2023-09-12T12:26:37;13.50;;;6.60;;
82012;SDS011;71535;53.354;15.030;2023-09-12T12:29:04;11.63;;;6.85;;
82012;SDS011;71535;53.354;15.030;2023-09-12T12:31:32;12.98;;;6.75;;
82012;SDS011;71535;53.354;15.030;2023-09-12T12:34:00;10.43;;;5.93;;
82012;SDS011;71535;53.354;15.030;2023-09-12T12:36:26;10.23;;;6.28;;
82012;SDS011;71535;53.354;15.030;2023-09-12T12:38:53;9.57;;;6.70;;
82012;SDS011;71535;53.354;15.030;2023-09-12T12:41:23;9.10;;;5.78;;
82012;SDS011;71535;53.354;15.030;2023-09-12T12:43:51;9.38;;;6.10;;
82012;SDS011;71535;53.354;15.030;2023-09-12T12:46:18;11.55;;;6.93;;
82012;SDS011;71535;53.354;15.030;2023-09-12T12:48:46;11.20;;;7.25;;
82012;SDS011;71535;53.354;15.030;2023-09-12T12:51:13;10.63;;;6.47;;
82012;SDS011;71535;53.354;15.030;2023-09-12T12:53:42;11.40;;;6.72;;
82012;SDS011;71535;53.354;15.030;2023-09-12T12:56:09;10.93;;;6.75;;
82012;SDS011;71535;53.354;15.030;2023-09-12T12:58:37;14.88;;;7.65;;
82012;SDS011;71535;53.354;15.030;2023-09-12T13:01:04;13.07;;;7.53;;
82012;SDS011;71535;53.354;15.030;2023-09-12T13:03:30;12.77;;;5.80;;
82012;SDS011;71535;53.354;15.030;2023-09-12T13:05:58;12.93;;;7.50;;
82012;SDS011;71535;53.354;15.030;2023-09-12T13:08:25;12.82;;;6.75;;
82012;SDS011;71535;53.354;15.030;2023-09-12T13:10:51;15.95;;;7.40;;
82012;SDS011;71535;53.354;15.030;2023-09-12T13:13:18;12.27;;;6.43;;
82012;SDS011;71535;53.354;15.030;2023-09-12T13:15:44;13.38;;;7.82;;
82012;SDS011;71535;53.354;15.030;2023-09-12T13:18:11;10.70;;;6.82;;
82012;SDS011;71535;53.354;15.030;2023-09-12T13:20:37;9.40;;;5.82;;
82012;SDS011;71535;53.354;15.030;2023-09-12T13:23:05;12.20;;;6.95;;
82012;SDS011;71535;53.354;15.030;2023-09-12T13:25:32;11.90;;;6.85;;
82012;SDS011;71535;53.354;15.030;2023-09-12T13:27:58;10.70;;;6.43;;
82012;SDS011;71535;53.354;15.030;2023-09-12T13:30:25;14.52;;;6.88;;
82012;SDS011;71535;53.354;15.030;2023-09-12T13:32:51;12.75;;;6.43;;
82012;SDS011;71535;53.354;15.030;2023-09-12T13:35:18;14.85;;;6.18;;
82012;SDS011;71535;53.354;15.030;2023-09-12T13:37:44;11.15;;;6.63;;
82012;SDS011;71535;53.354;15.030;2023-09-12T13:40:12;15.02;;;7.60;;
82012;SDS011;71535;53.354;15.030;2023-09-12T13:42:39;10.32;;;5.82;;
82012;SDS011;71535;53.354;15.030;2023-09-12T13:45:06;11.35;;;7.22;;
82012;SDS011;71535;53.354;15.030;2023-09-12T13:47:33;9.93;;;6.25;;
82012;SDS011;71535;53.354;15.030;2023-09-12T13:49:59;13.68;;;6.82;;
82012;SDS011;71535;53.354;15.030;2023-09-12T13:52:26;13.45;;;6.60;;
82012;SDS011;71535;53.354;15.030;2023-09-12T13:54:53;9.60;;;6.32;;
82012;SDS011;71535;53.354;15.030;2023-09-12T13:57:20;12.10;;;5.97;;
82012;SDS011;71535;53.354;15.030;2023-09-12T13:59:47;13.20;;;5.95;;
82012;SDS011;71535;53.354;15.030;2023-09-12T14:02:13;15.70;;;6.18;;
82012;SDS011;71535;53.354;15.030;2023-09-12T14:04:40;11.23;;;6.38;;
82012;SDS011;71535;53.354;15.030;2023-09-12T14:07:07;11.85;;;5.88;;
82012;SDS011;71535;53.354;15.030;2023-09-12T14:09:33;13.25;;;6.03;;
82012;SDS011;71535;53.354;15.030;2023-09-12T14:12:00;12.70;;;6.55;;
82012;SDS011;71535;53.354;15.030;2023-09-12T14:14:28;10.30;;;6.15;;
82012;SDS011;71535;53.354;15.030;2023-09-12T14:16:54;9.88;;;6.50;;
82012;SDS011;71535;53.354;15.030;2023-09-12T14:19:21;13.98;;;5.95;;
82012;SDS011;71535;53.354;15.030;2023-09-12T14:21:47;12.07;;;6.72;;